Hauptseite
METAR-TAF:

METAR-TAF

Flughäfen :

Ekofisk, Norwegen

Bohrplattform

Breite: 56-33N, Länge: 003-15E, Höhe: 3 m

Beobachtung

Neuester Wetterbericht von vor 13 Minuten, um 18:50 UTC
Wind 20 kt aus Ost
Temperatur 1°C
Luftfeuchtigkeit 55%
Luftdruck 1037 hPa
Sichtweite 10 km oder mehr
Leicht bewölkt in der Höhe von 3000 ft
Durchbrochene Bewölkung in der Höhe von 4500 ft

METAR: ENLE 251850Z 09020KT 9999 FEW030 BKN045 01/M07 Q1037 W07/S3

Zeit: 20:03 (19:03 UTC)

Prognose

Neuester Wetterbericht von vor 2 Stunden und 3 Minuten, um 17:00 UTC
Gültige Prognose vom 25 um 18 UTC bis 26 um 03 UTC
Wind 22 kt aus Ost
Sichtweite 10 km oder mehr
Aufgelockert bewölkt in der Höhe von 2000 ft
Durchbrochene Bewölkung in der Höhe von 5000 ft

TAF: ENLE 251700Z 2518/2603 09022KT 9999 SCT020 BKN050

Wetterbeobachtungen und Prognosen von mehr als 4000 Flughäfen (METAR und TAF Bericht).

Die verfügbaren Stationen werden durch gelbe und rote Markierungen auf der Karte dargestellt.

Führen Sie die Maus auf sie, um den Namen der Station zu sehen.

Darauf klicken, um die Beobachtung von Wetterbeobachtungen und Prognosen zu sehen.

Um die Karte zu ändern : klicken Sie auf den grünen Tasten mit einem schwarzen Kreuz Zum Vergrößern, auf den grünen Button mit einem Gedankenstrich zu verkleinern, oder auf die grünen Pfeile für benachbarte Karten.


METAR-TAF: